createdAt,value
2023-03-29T00:03:39.764Z,7.94
2023-03-29T00:08:42.760Z,8.02
2023-03-29T00:13:45.245Z,8.02
2023-03-29T00:18:47.962Z,8.00
2023-03-29T00:23:50.409Z,7.97
2023-03-29T00:28:52.864Z,8.30
2023-03-29T00:33:56.188Z,7.76
2023-03-29T00:38:58.889Z,7.66
2023-03-29T00:44:04.411Z,7.65
2023-03-29T00:49:12.983Z,7.94
2023-03-29T00:54:19.736Z,7.80
2023-03-29T00:59:28.737Z,7.82
2023-03-29T01:04:46.784Z,7.87
2023-03-29T01:10:02.351Z,7.97
2023-03-29T01:15:12.137Z,7.33
2023-03-29T01:20:43.391Z,7.45
2023-03-29T01:26:11.763Z,7.53
2023-03-29T01:31:30.712Z,7.28
2023-03-29T01:36:44.790Z,7.34
2023-03-29T01:42:21.123Z,7.31
2023-03-29T01:47:47.541Z,7.76
2023-03-29T01:53:49.083Z,7.15
2023-03-29T01:58:57.467Z,6.94
2023-03-29T02:04:03.436Z,6.85
2023-03-29T02:09:09.261Z,7.05
2023-03-29T02:14:14.079Z,7.22
2023-03-29T02:19:17.652Z,6.98
2023-03-29T02:24:22.591Z,6.99
2023-03-29T02:29:25.845Z,6.99
2023-03-29T02:34:34.099Z,7.04
2023-03-29T02:39:38.499Z,7.03
2023-03-29T02:44:42.046Z,6.94
2023-03-29T02:49:45.267Z,6.74
2023-03-29T02:54:51.398Z,6.82
2023-03-29T02:59:55.954Z,6.81
2023-03-29T03:04:59.407Z,6.77
2023-03-29T03:10:04.076Z,6.75
2023-03-29T03:15:07.504Z,6.83
2023-03-29T03:20:13.961Z,6.89
2023-03-29T03:25:22.327Z,6.96
2023-03-29T03:30:25.840Z,6.95
2023-03-29T03:35:48.175Z,7.02
2023-03-29T03:40:57.112Z,7.23
2023-03-29T03:46:00.727Z,7.26
2023-03-29T03:51:03.715Z,7.38
2023-03-29T03:56:09.486Z,7.37
2023-03-29T04:01:28.794Z,7.33
2023-03-29T04:06:47.626Z,7.37
2023-03-29T04:12:09.412Z,7.51
2023-03-29T04:17:14.867Z,7.68
2023-03-29T04:22:31.329Z,7.88
2023-03-29T04:27:34.597Z,8.02
2023-03-29T04:32:41.262Z,8.18
2023-03-29T04:37:45.111Z,8.30
2023-03-29T04:42:51.868Z,8.27
2023-03-29T04:48:02.329Z,8.34
2023-03-29T04:53:06.136Z,8.41
2023-03-29T04:58:08.998Z,8.57
2023-03-29T05:03:14.822Z,8.69
2023-03-29T05:08:32.641Z,8.75
2023-03-29T05:13:55.936Z,8.75
2023-03-29T05:19:01.485Z,8.81
2023-03-29T05:24:06.315Z,8.75
2023-03-29T05:29:32.950Z,8.85
2023-03-29T05:35:11.958Z,8.86
2023-03-29T05:40:14.943Z,8.93
2023-03-29T05:45:37.375Z,8.88
2023-03-29T05:50:40.154Z,8.92
2023-03-29T05:55:43.461Z,8.92
2023-03-29T06:00:49.913Z,9.05
2023-03-29T06:06:15.309Z,9.03
2023-03-29T06:11:18.533Z,9.16
2023-03-29T06:16:50.283Z,9.32
2023-03-29T06:21:53.976Z,9.54
2023-03-29T06:27:00.436Z,9.83
2023-03-29T06:32:04.136Z,10.38
2023-03-29T06:37:29.640Z,10.87
2023-03-29T06:42:58.542Z,11.14
2023-03-29T06:48:17.826Z,11.24
2023-03-29T06:53:30.937Z,11.34
2023-03-29T06:58:37.486Z,11.19
2023-03-29T07:03:52.104Z,11.07
2023-03-29T07:09:01.847Z,11.19
2023-03-29T07:14:30.232Z,11.33
2023-03-29T07:19:33.347Z,11.51
2023-03-29T07:24:49.520Z,11.79
2023-03-29T07:29:52.478Z,11.99
2023-03-29T07:34:56.015Z,12.14
2023-03-29T07:40:12.632Z,12.14
2023-03-29T07:45:35.660Z,11.98
2023-03-29T07:50:45.818Z,12.12
2023-03-29T07:55:50.117Z,11.94
2023-03-29T08:01:18.813Z,12.05
2023-03-29T08:06:42.676Z,12.37
2023-03-29T08:11:45.267Z,12.48
2023-03-29T08:16:57.053Z,12.71
2023-03-29T08:22:00.740Z,12.78
2023-03-29T08:27:11.476Z,12.64
2023-03-29T08:32:14.374Z,12.62
2023-03-29T08:37:19.323Z,12.78
2023-03-29T08:42:38.727Z,12.76
2023-03-29T08:47:48.176Z,12.68
2023-03-29T08:52:57.962Z,12.67
2023-03-29T08:58:24.706Z,12.73
2023-03-29T09:03:31.065Z,12.70
2023-03-29T09:08:51.005Z,12.83
2023-03-29T09:14:32.525Z,13.22
2023-03-29T09:19:52.604Z,13.43
2023-03-29T09:25:21.702Z,13.33
2023-03-29T09:30:30.889Z,13.55
2023-03-29T09:35:49.465Z,13.86
2023-03-29T09:41:04.484Z,14.00
2023-03-29T09:46:23.117Z,14.90
2023-03-29T09:51:28.469Z,14.97
2023-03-29T09:56:31.818Z,15.43
2023-03-29T10:01:46.905Z,15.83
2023-03-29T10:06:53.469Z,15.33
2023-03-29T10:12:03.830Z,16.05
2023-03-29T10:17:14.173Z,17.51
2023-03-29T10:22:24.347Z,16.48
2023-03-29T10:27:32.277Z,15.99
2023-03-29T10:32:37.175Z,17.07
2023-03-29T10:37:49.935Z,17.62
2023-03-29T10:42:57.807Z,19.95
2023-03-29T10:48:00.524Z,22.11
2023-03-29T10:53:06.363Z,24.88
2023-03-29T10:58:36.471Z,22.82
2023-03-29T11:04:23.281Z,21.53
2023-03-29T11:09:43.628Z,21.69
2023-03-29T11:15:36.707Z,21.89
2023-03-29T11:20:45.891Z,23.44
2023-03-29T11:26:04.394Z,26.57
2023-03-29T11:31:25.931Z,26.68
2023-03-29T11:36:44.838Z,23.89
2023-03-29T11:41:53.557Z,21.26
2023-03-29T11:47:18.734Z,20.92
2023-03-29T11:52:33.922Z,20.16
2023-03-29T11:57:43.915Z,20.33
2023-03-29T12:03:02.329Z,20.22
2023-03-29T12:08:12.354Z,22.16
2023-03-29T12:13:21.222Z,20.15
2023-03-29T12:18:35.171Z,19.21
2023-03-29T12:23:38.547Z,19.64
2023-03-29T12:29:15.098Z,19.33
2023-03-29T12:34:38.958Z,19.36
2023-03-29T12:40:18.028Z,20.09
2023-03-29T12:45:43.167Z,18.98
2023-03-29T12:50:53.549Z,18.35
2023-03-29T12:56:08.840Z,18.84
2023-03-29T13:01:23.738Z,18.64
2023-03-29T13:06:50.534Z,19.03
2023-03-29T13:12:09.275Z,18.96
2023-03-29T13:17:31.151Z,18.27
2023-03-29T13:22:39.682Z,17.93
2023-03-29T13:28:07.595Z,17.57
2023-03-29T13:33:16.274Z,17.20
2023-03-29T13:38:21.339Z,16.84
2023-03-29T13:43:31.366Z,17.08
2023-03-29T13:48:51.302Z,17.70
2023-03-29T13:54:14.007Z,17.29
2023-03-29T13:59:27.957Z,17.52
2023-03-29T14:04:52.390Z,17.28
2023-03-29T14:09:58.495Z,17.37
2023-03-29T14:15:05.040Z,17.21
2023-03-29T14:20:09.840Z,17.18
2023-03-29T14:25:18.221Z,17.20
2023-03-29T14:30:28.623Z,17.38
2023-03-29T14:35:33.545Z,17.22
2023-03-29T14:40:36.365Z,17.36
2023-03-29T14:45:39.554Z,17.39
2023-03-29T14:50:44.407Z,17.54
2023-03-29T14:55:50.661Z,18.18
2023-03-29T15:00:54.263Z,18.16
2023-03-29T15:06:04.601Z,18.12
2023-03-29T15:11:23.489Z,17.66
2023-03-29T15:16:30.592Z,17.57
2023-03-29T15:21:35.819Z,17.65
2023-03-29T15:26:39.090Z,17.59
2023-03-29T15:31:43.129Z,18.11
2023-03-29T15:36:46.668Z,18.18
2023-03-29T15:41:51.648Z,17.88
2023-03-29T15:47:00.111Z,17.92
2023-03-29T15:52:02.881Z,18.04
2023-03-29T15:57:08.784Z,17.93
2023-03-29T16:02:23.835Z,17.71
2023-03-29T16:07:26.731Z,17.51
2023-03-29T16:12:29.416Z,17.40
2023-03-29T16:17:33.304Z,17.27
2023-03-29T16:22:36.214Z,17.18
2023-03-29T16:27:38.809Z,17.13
2023-03-29T16:32:42.472Z,17.15
2023-03-29T16:37:47.823Z,17.08
2023-03-29T16:42:51.509Z,17.00
2023-03-29T16:47:54.764Z,16.91
2023-03-29T16:52:57.565Z,16.93
2023-03-29T16:58:00.449Z,16.89
2023-03-29T17:03:03.192Z,16.83
2023-03-29T17:08:06.515Z,16.76
2023-03-29T17:13:09.771Z,16.70
2023-03-29T17:18:12.545Z,16.59
2023-03-29T17:23:15.107Z,16.52
2023-03-29T17:28:18.085Z,16.50
2023-03-29T17:33:22.851Z,16.53
2023-03-29T17:38:27.029Z,16.46
2023-03-29T17:43:29.825Z,16.41
2023-03-29T17:48:33.108Z,16.19
2023-03-29T17:53:36.373Z,16.08
2023-03-29T17:58:39.430Z,15.88
2023-03-29T18:03:46.846Z,15.79
2023-03-29T18:08:49.752Z,15.79
2023-03-29T18:13:58.596Z,15.78
2023-03-29T18:19:01.304Z,15.64
2023-03-29T18:24:03.997Z,15.66
2023-03-29T18:29:08.545Z,15.58
2023-03-29T18:34:12.541Z,15.69
2023-03-29T18:39:15.188Z,15.61
2023-03-29T18:44:17.993Z,15.57
2023-03-29T18:49:21.555Z,15.63
2023-03-29T18:54:24.253Z,15.56
2023-03-29T18:59:27.095Z,15.64
2023-03-29T19:04:30.192Z,15.65
2023-03-29T19:09:32.862Z,15.71
2023-03-29T19:14:35.471Z,15.82
2023-03-29T19:19:38.099Z,15.88
2023-03-29T19:24:40.753Z,15.85
2023-03-29T19:29:43.326Z,15.86
2023-03-29T19:34:46.368Z,15.79
2023-03-29T19:39:48.900Z,15.68
2023-03-29T19:44:51.428Z,15.67
2023-03-29T19:49:54.136Z,15.51
2023-03-29T19:54:58.757Z,15.50
2023-03-29T20:00:01.673Z,15.46
2023-03-29T20:05:04.605Z,15.42
2023-03-29T20:10:07.491Z,15.50
2023-03-29T20:15:10.693Z,15.52
2023-03-29T20:20:14.163Z,15.49
2023-03-29T20:25:16.964Z,15.49
2023-03-29T20:30:19.661Z,15.49
2023-03-29T20:35:22.143Z,15.44
2023-03-29T20:40:24.926Z,15.24
2023-03-29T20:45:27.908Z,15.17
2023-03-29T20:50:30.964Z,15.15
2023-03-29T20:55:39.511Z,15.18
2023-03-29T21:00:42.000Z,15.23
2023-03-29T21:05:44.828Z,15.30
2023-03-29T21:10:48.110Z,15.25
2023-03-29T21:15:51.336Z,15.24
2023-03-29T21:20:53.943Z,15.29
2023-03-29T21:25:57.002Z,15.28
2023-03-29T21:31:03.405Z,15.28
2023-03-29T21:36:06.634Z,15.25
2023-03-29T21:41:12.610Z,15.21
2023-03-29T21:46:15.699Z,15.21
2023-03-29T21:51:18.487Z,15.23
2023-03-29T21:56:22.556Z,15.23
2023-03-29T22:01:25.246Z,15.21
2023-03-29T22:06:28.058Z,15.13
2023-03-29T22:11:31.646Z,15.17
2023-03-29T22:16:37.407Z,15.20
2023-03-29T22:21:40.097Z,15.25
2023-03-29T22:26:45.024Z,15.26
2023-03-29T22:31:47.698Z,15.38
2023-03-29T22:36:50.402Z,15.47
2023-03-29T22:41:52.913Z,15.51
2023-03-29T22:46:56.081Z,15.65
2023-03-29T22:51:59.915Z,15.66
2023-03-29T22:57:02.472Z,15.62
2023-03-29T23:02:05.226Z,15.67
2023-03-29T23:07:08.109Z,15.74
2023-03-29T23:12:10.676Z,15.84
2023-03-29T23:17:13.639Z,15.89
2023-03-29T23:22:16.151Z,15.86
2023-03-29T23:27:19.867Z,15.80
2023-03-29T23:32:22.392Z,15.77
2023-03-29T23:37:25.114Z,15.82
2023-03-29T23:42:29.523Z,15.98
2023-03-29T23:47:32.122Z,15.97
2023-03-29T23:52:34.679Z,15.94
2023-03-29T23:57:37.244Z,15.93
